createdAt,value
2023-05-09T00:00:57.254Z,9.15
2023-05-09T00:03:24.447Z,9.12
2023-05-09T00:05:51.837Z,9.10
2023-05-09T00:08:19.025Z,9.08
2023-05-09T00:10:46.129Z,9.05
2023-05-09T00:13:13.977Z,9.04
2023-05-09T00:15:41.159Z,9.02
2023-05-09T00:18:08.254Z,9.01
2023-05-09T00:20:35.801Z,8.98
2023-05-09T00:23:04.467Z,8.97
2023-05-09T00:25:31.967Z,8.96
2023-05-09T00:27:59.210Z,8.95
2023-05-09T00:30:26.307Z,8.94
2023-05-09T00:32:53.571Z,8.92
2023-05-09T00:35:20.710Z,8.90
2023-05-09T00:37:47.864Z,8.87
2023-05-09T00:40:15.253Z,8.86
2023-05-09T00:42:42.406Z,8.85
2023-05-09T00:45:10.032Z,8.83
2023-05-09T00:47:38.058Z,8.82
2023-05-09T00:50:05.906Z,8.82
2023-05-09T00:52:33.882Z,8.79
2023-05-09T00:55:02.183Z,8.78
2023-05-09T00:57:29.353Z,8.76
2023-05-09T00:59:56.454Z,8.76
2023-05-09T01:02:24.016Z,8.74
2023-05-09T01:04:51.160Z,8.73
2023-05-09T01:07:32.118Z,8.71
2023-05-09T01:10:12.104Z,8.70
2023-05-09T01:13:00.973Z,8.68
2023-05-09T01:15:38.394Z,8.67
2023-05-09T01:18:31.055Z,8.65
2023-05-09T01:21:04.368Z,8.62
2023-05-09T01:23:44.128Z,8.62
2023-05-09T01:26:42.161Z,8.61
2023-05-09T01:29:17.965Z,8.60
2023-05-09T01:31:45.614Z,8.62
2023-05-09T01:34:15.195Z,8.61
2023-05-09T01:36:42.681Z,8.61
2023-05-09T01:39:12.603Z,8.62
2023-05-09T01:41:41.801Z,8.61
2023-05-09T01:44:11.699Z,8.60
2023-05-09T01:46:39.456Z,8.61
2023-05-09T01:49:07.909Z,8.60
2023-05-09T01:51:36.712Z,8.60
2023-05-09T01:54:04.086Z,8.59
2023-05-09T01:56:31.691Z,8.57
2023-05-09T01:58:59.865Z,8.58
2023-05-09T02:01:27.080Z,8.57
2023-05-09T02:03:54.304Z,8.57
2023-05-09T02:06:23.412Z,8.58
2023-05-09T02:08:51.068Z,8.60
2023-05-09T02:11:18.300Z,8.60
2023-05-09T02:13:45.377Z,8.60
2023-05-09T02:16:12.903Z,8.59
2023-05-09T02:18:41.722Z,8.59
2023-05-09T02:21:09.265Z,8.58
2023-05-09T02:23:36.595Z,8.59
2023-05-09T02:26:04.014Z,8.58
2023-05-09T02:28:31.264Z,8.58
2023-05-09T02:31:00.249Z,8.58
2023-05-09T02:33:28.035Z,8.60
2023-05-09T02:35:55.722Z,8.60
2023-05-09T02:38:23.452Z,8.60
2023-05-09T02:40:52.431Z,8.60
2023-05-09T02:43:19.778Z,8.61
2023-05-09T02:45:46.925Z,8.61
2023-05-09T02:48:14.088Z,8.60
2023-05-09T02:50:43.316Z,8.60
2023-05-09T02:53:10.510Z,8.61
2023-05-09T02:56:02.651Z,8.61
2023-05-09T02:58:54.124Z,8.58
2023-05-09T03:01:22.307Z,8.59
2023-05-09T03:03:49.478Z,8.58
2023-05-09T03:06:16.662Z,8.55
2023-05-09T03:08:43.779Z,8.54
2023-05-09T03:11:10.853Z,8.51
2023-05-09T03:13:37.974Z,8.48
2023-05-09T03:16:06.118Z,8.47
2023-05-09T03:18:33.392Z,8.45
2023-05-09T03:21:00.580Z,8.46
2023-05-09T03:23:27.792Z,8.45
2023-05-09T03:25:55.024Z,8.46
2023-05-09T03:28:22.103Z,8.44
2023-05-09T03:30:50.644Z,8.43
2023-05-09T03:33:17.758Z,8.40
2023-05-09T03:35:44.881Z,8.40
2023-05-09T03:38:11.959Z,8.40
2023-05-09T03:40:39.121Z,8.38
2023-05-09T03:43:06.545Z,8.39
2023-05-09T03:45:35.670Z,8.38
2023-05-09T03:48:05.248Z,8.38
2023-05-09T03:50:32.485Z,8.39
2023-05-09T03:52:59.566Z,8.38
2023-05-09T03:55:26.695Z,8.38
2023-05-09T03:57:54.342Z,8.38
2023-05-09T04:00:22.137Z,8.38
2023-05-09T04:02:49.731Z,8.40
2023-05-09T04:05:17.430Z,8.40
2023-05-09T04:07:44.838Z,8.40
2023-05-09T04:10:12.166Z,8.39
2023-05-09T04:12:39.334Z,8.41
2023-05-09T04:15:07.412Z,8.42
2023-05-09T04:17:34.568Z,8.43
2023-05-09T04:20:02.040Z,8.43
2023-05-09T04:22:29.344Z,8.43
2023-05-09T04:24:57.202Z,8.45
2023-05-09T04:27:24.315Z,8.47
2023-05-09T04:29:53.318Z,8.48
2023-05-09T04:32:20.923Z,8.54
2023-05-09T04:34:48.079Z,8.62
2023-05-09T04:37:15.244Z,8.82
2023-05-09T04:39:42.388Z,9.08
2023-05-09T04:42:09.493Z,9.32
2023-05-09T04:44:36.820Z,9.47
2023-05-09T04:47:04.147Z,9.57
2023-05-09T04:49:31.282Z,9.70
2023-05-09T04:51:58.389Z,9.78
2023-05-09T04:54:25.801Z,9.90
2023-05-09T04:56:53.234Z,9.94
2023-05-09T04:59:23.285Z,10.00
2023-05-09T05:01:50.461Z,10.14
2023-05-09T05:04:17.831Z,10.26
2023-05-09T05:06:45.013Z,10.38
2023-05-09T05:09:12.567Z,10.50
2023-05-09T05:11:41.663Z,10.61
2023-05-09T05:14:12.220Z,10.65
2023-05-09T05:16:39.368Z,10.70
2023-05-09T05:19:06.505Z,10.71
2023-05-09T05:21:33.722Z,10.80
2023-05-09T05:24:00.759Z,10.84
2023-05-09T05:26:29.040Z,10.82
2023-05-09T05:28:57.065Z,10.86
2023-05-09T05:31:24.239Z,10.86
2023-05-09T05:33:51.337Z,10.95
2023-05-09T05:36:43.937Z,11.06
2023-05-09T05:42:52.681Z,11.21
2023-05-09T05:45:20.099Z,11.24
2023-05-09T05:47:47.214Z,11.28
2023-05-09T05:50:14.626Z,11.31
2023-05-09T05:52:41.831Z,11.39
2023-05-09T05:55:09.269Z,11.46
2023-05-09T05:57:37.743Z,11.56
2023-05-09T06:00:10.450Z,11.66
2023-05-09T06:02:37.927Z,11.73
2023-05-09T06:05:07.009Z,11.82
2023-05-09T06:07:34.196Z,11.88
2023-05-09T06:10:01.328Z,11.86
2023-05-09T06:12:28.709Z,11.88
2023-05-09T06:14:56.101Z,11.87
2023-05-09T06:17:23.206Z,11.87
2023-05-09T06:19:50.306Z,11.92
2023-05-09T06:22:17.523Z,11.94
2023-05-09T06:24:44.612Z,12.01
2023-05-09T06:27:11.706Z,12.09
2023-05-09T06:29:38.843Z,12.18
2023-05-09T06:32:06.057Z,12.29
2023-05-09T06:34:33.347Z,12.38
2023-05-09T06:37:00.489Z,12.40
2023-05-09T06:39:27.720Z,12.45
2023-05-09T06:41:54.949Z,12.54
2023-05-09T06:44:22.260Z,12.61
2023-05-09T06:46:49.469Z,12.67
2023-05-09T06:49:16.580Z,12.76
2023-05-09T06:51:43.684Z,12.80
2023-05-09T06:54:10.851Z,12.79
2023-05-09T06:56:45.487Z,12.81
2023-05-09T06:59:16.498Z,12.88
2023-05-09T07:01:43.729Z,12.92
2023-05-09T07:04:11.664Z,12.88
2023-05-09T07:06:38.973Z,12.95
2023-05-09T07:09:06.351Z,12.99
2023-05-09T07:11:37.770Z,13.07
2023-05-09T07:14:04.988Z,13.15
2023-05-09T07:16:34.608Z,13.24
2023-05-09T07:19:03.101Z,13.33
2023-05-09T07:21:30.677Z,13.37
2023-05-09T07:23:58.108Z,13.46
2023-05-09T07:26:25.665Z,13.54
2023-05-09T07:28:52.888Z,13.62
2023-05-09T07:31:20.342Z,13.67
2023-05-09T07:33:47.760Z,13.74
2023-05-09T07:36:16.898Z,13.71
2023-05-09T07:38:44.292Z,13.71
2023-05-09T07:41:12.280Z,13.74
2023-05-09T07:43:39.459Z,13.78
2023-05-09T07:46:06.802Z,13.82
2023-05-09T07:48:34.138Z,13.83
2023-05-09T07:51:01.447Z,13.94
2023-05-09T07:53:29.208Z,14.06
2023-05-09T07:55:56.501Z,14.13
2023-05-09T07:58:23.979Z,14.22
2023-05-09T08:00:51.453Z,14.30
2023-05-09T08:03:20.762Z,14.40
2023-05-09T08:05:48.168Z,14.48
2023-05-09T08:08:15.831Z,14.56
2023-05-09T08:10:43.711Z,14.68
2023-05-09T08:13:11.106Z,14.80
2023-05-09T08:15:38.564Z,14.88
2023-05-09T08:18:06.539Z,14.97
2023-05-09T08:20:34.520Z,15.07
2023-05-09T08:23:01.909Z,15.23
2023-05-09T08:25:29.634Z,15.34
2023-05-09T08:27:57.061Z,15.40
2023-05-09T08:30:24.368Z,15.51
2023-05-09T08:32:51.630Z,15.48
2023-05-09T08:35:18.977Z,15.53
2023-05-09T08:37:47.883Z,15.53
2023-05-09T08:40:16.227Z,15.50
2023-05-09T08:42:45.905Z,15.45
2023-05-09T08:45:16.988Z,15.44
2023-05-09T08:47:44.750Z,15.48
2023-05-09T08:50:15.205Z,15.50
2023-05-09T08:52:43.038Z,15.67
2023-05-09T08:55:10.256Z,15.74
2023-05-09T08:57:37.422Z,15.77
2023-05-09T09:00:11.095Z,15.84
2023-05-09T09:02:41.446Z,15.92
2023-05-09T09:05:19.651Z,16.06
2023-05-09T09:07:51.547Z,16.10
2023-05-09T09:10:21.317Z,16.08
2023-05-09T09:12:50.149Z,16.15
2023-05-09T09:15:18.315Z,16.15
2023-05-09T09:17:47.478Z,16.30
2023-05-09T09:20:15.505Z,16.45
2023-05-09T09:22:43.210Z,16.54
2023-05-09T09:25:10.829Z,16.57
2023-05-09T09:27:37.907Z,16.57
2023-05-09T09:30:12.381Z,16.64
2023-05-09T09:32:40.203Z,16.75
2023-05-09T09:35:09.188Z,16.80
2023-05-09T09:37:40.533Z,16.83
2023-05-09T09:40:09.792Z,16.94
2023-05-09T09:42:46.474Z,17.03
2023-05-09T09:45:17.864Z,17.09
2023-05-09T09:47:46.808Z,17.25
2023-05-09T09:50:16.279Z,17.31
2023-05-09T09:52:50.682Z,17.41
2023-05-09T09:55:18.849Z,17.54
2023-05-09T09:57:47.986Z,17.63
2023-05-09T10:00:41.456Z,17.72
2023-05-09T10:03:14.899Z,17.78
2023-05-09T10:05:42.098Z,17.81
2023-05-09T10:08:09.758Z,17.84
2023-05-09T10:10:38.129Z,17.87
2023-05-09T10:13:07.835Z,17.93
2023-05-09T10:15:49.412Z,17.82
2023-05-09T10:18:23.225Z,17.91
2023-05-09T10:20:50.652Z,18.03
2023-05-09T10:23:18.325Z,18.06
2023-05-09T10:25:48.485Z,18.08
2023-05-09T10:28:18.519Z,18.17
2023-05-09T10:30:57.321Z,18.18
2023-05-09T10:33:28.078Z,18.26
2023-05-09T10:35:57.608Z,18.11
2023-05-09T10:38:25.293Z,18.04
2023-05-09T10:40:53.468Z,18.11
2023-05-09T10:43:21.752Z,18.14
2023-05-09T10:45:48.975Z,18.30
2023-05-09T10:48:16.667Z,18.46
2023-05-09T10:50:45.285Z,18.50
2023-05-09T10:53:16.995Z,18.51
2023-05-09T10:55:47.401Z,18.66
2023-05-09T10:58:24.385Z,18.60
2023-05-09T11:00:52.393Z,18.65
2023-05-09T11:03:19.831Z,18.65
2023-05-09T11:05:48.775Z,18.74
2023-05-09T11:08:27.091Z,18.84
2023-05-09T11:10:56.306Z,18.95
2023-05-09T11:13:30.711Z,18.97
2023-05-09T11:16:00.674Z,18.85
2023-05-09T11:18:28.891Z,18.79
2023-05-09T11:20:56.705Z,18.86
2023-05-09T11:23:27.715Z,19.05
2023-05-09T11:26:04.978Z,19.30
2023-05-09T11:28:36.815Z,19.44
2023-05-09T11:31:17.642Z,19.66
2023-05-09T11:33:47.020Z,19.89
2023-05-09T11:36:30.212Z,19.85
2023-05-09T11:39:07.009Z,19.73
2023-05-09T11:41:43.242Z,19.72
2023-05-09T11:44:14.806Z,19.81
2023-05-09T11:46:42.554Z,19.78
2023-05-09T11:49:12.046Z,19.86
2023-05-09T11:51:39.821Z,19.91
2023-05-09T11:54:08.018Z,20.05
2023-05-09T11:56:36.553Z,20.10
2023-05-09T11:59:03.849Z,20.29
2023-05-09T12:01:31.174Z,20.36
2023-05-09T12:03:59.225Z,20.40
2023-05-09T12:06:26.428Z,20.51
2023-05-09T12:09:01.948Z,20.63
2023-05-09T12:11:32.380Z,20.83
2023-05-09T12:13:59.645Z,20.95
2023-05-09T12:16:26.880Z,20.92
2023-05-09T12:18:54.719Z,21.12
2023-05-09T12:21:22.088Z,21.22
2023-05-09T12:23:51.722Z,21.23
2023-05-09T12:26:22.580Z,21.30
2023-05-09T12:28:50.358Z,21.50
2023-05-09T12:31:17.603Z,21.63
2023-05-09T12:33:44.906Z,21.70
2023-05-09T12:36:13.003Z,21.78
2023-05-09T12:38:40.256Z,21.89
2023-05-09T12:41:18.255Z,21.96
2023-05-09T12:43:50.492Z,22.05
2023-05-09T12:46:19.044Z,22.12
2023-05-09T12:48:47.445Z,22.31
2023-05-09T12:51:21.541Z,22.34
2023-05-09T12:53:48.936Z,22.46
2023-05-09T12:56:20.346Z,22.43
2023-05-09T12:58:52.321Z,22.54
2023-05-09T13:01:20.771Z,22.76
2023-05-09T13:03:52.362Z,22.97
2023-05-09T13:06:21.011Z,23.17
2023-05-09T13:09:01.154Z,23.41
2023-05-09T13:11:28.887Z,23.34
2023-05-09T13:19:17.923Z,22.97
2023-05-09T13:21:45.116Z,23.36
2023-05-09T13:24:12.275Z,23.32
2023-05-09T13:30:59.261Z,24.06
2023-05-09T13:33:26.905Z,24.07
2023-05-09T13:35:54.220Z,24.05
2023-05-09T13:38:21.342Z,24.10
2023-05-09T13:40:48.521Z,24.13
2023-05-09T13:43:15.788Z,24.34
2023-05-09T13:45:42.946Z,24.57
2023-05-09T13:48:11.600Z,24.71
2023-05-09T13:50:39.125Z,24.74
2023-05-09T13:53:06.345Z,24.87
2023-05-09T13:55:34.507Z,24.92
2023-05-09T13:58:01.884Z,24.84
2023-05-09T14:00:29.179Z,25.14
2023-05-09T14:02:56.402Z,25.66
2023-05-09T14:05:23.552Z,26.97
2023-05-09T14:07:50.814Z,28.37
2023-05-09T14:10:18.228Z,30.04
2023-05-09T14:12:47.042Z,31.52
2023-05-09T14:15:14.283Z,33.29
2023-05-09T14:17:43.647Z,34.72
2023-05-09T14:20:12.027Z,35.50
2023-05-09T14:22:39.210Z,35.20
2023-05-09T14:25:06.605Z,36.93
2023-05-09T14:27:36.900Z,37.43
2023-05-09T14:30:04.672Z,38.91
2023-05-09T14:32:31.859Z,40.17
2023-05-09T14:34:59.114Z,41.23
2023-05-09T14:37:26.420Z,41.82
2023-05-09T14:39:53.555Z,42.87
2023-05-09T14:42:21.381Z,43.65
2023-05-09T14:44:48.578Z,44.13
2023-05-09T14:47:16.806Z,44.87
2023-05-09T14:49:44.180Z,45.05
2023-05-09T14:52:11.395Z,44.98
2023-05-09T14:54:38.573Z,46.26
2023-05-09T14:57:07.305Z,47.41
2023-05-09T14:59:36.853Z,46.29
2023-05-09T15:02:04.407Z,43.96
2023-05-09T15:04:31.756Z,45.08
2023-05-09T15:06:59.718Z,46.51
2023-05-09T15:09:27.091Z,44.76
2023-05-09T15:11:55.012Z,43.69
2023-05-09T15:14:22.301Z,42.75
2023-05-09T15:16:51.607Z,42.06
2023-05-09T15:19:19.155Z,41.65
2023-05-09T15:21:46.447Z,42.86
2023-05-09T15:24:13.635Z,43.00
2023-05-09T15:26:40.752Z,43.29
2023-05-09T15:29:07.944Z,42.83
2023-05-09T15:31:36.165Z,43.33
2023-05-09T15:34:03.464Z,44.51
2023-05-09T15:36:31.009Z,45.13
2023-05-09T15:38:58.255Z,44.54
2023-05-09T15:41:26.283Z,44.51
2023-05-09T15:43:53.461Z,45.04
2023-05-09T15:46:20.781Z,45.44
2023-05-09T15:48:48.016Z,44.10
2023-05-09T15:51:15.083Z,41.43
2023-05-09T15:53:42.227Z,42.75
2023-05-09T15:56:09.400Z,43.06
2023-05-09T15:58:36.765Z,43.61
2023-05-09T16:01:06.126Z,43.93
2023-05-09T16:03:34.670Z,43.54
2023-05-09T16:06:01.993Z,41.29
2023-05-09T16:08:29.185Z,39.86
2023-05-09T16:10:56.493Z,40.49
2023-05-09T16:13:23.767Z,40.30
2023-05-09T16:15:51.223Z,40.78
2023-05-09T16:18:18.661Z,39.77
2023-05-09T16:20:45.951Z,37.84
2023-05-09T16:23:13.230Z,34.40
2023-05-09T16:25:40.598Z,31.36
2023-05-09T16:28:08.426Z,29.63
2023-05-09T16:30:36.217Z,28.40
2023-05-09T16:33:03.460Z,27.23
2023-05-09T16:35:30.717Z,26.45
2023-05-09T16:37:57.935Z,25.79
2023-05-09T16:40:25.256Z,25.09
2023-05-09T16:42:53.793Z,24.56
2023-05-09T16:45:20.946Z,23.86
2023-05-09T16:47:48.154Z,23.18
2023-05-09T16:50:15.442Z,22.70
2023-05-09T16:52:42.753Z,22.29
2023-05-09T16:55:10.020Z,22.04
2023-05-09T16:57:37.249Z,21.66
2023-05-09T17:00:07.736Z,21.38
2023-05-09T17:02:36.295Z,21.14
2023-05-09T17:05:04.432Z,21.01
2023-05-09T17:07:32.134Z,20.73
2023-05-09T17:09:59.596Z,20.47
2023-05-09T17:12:27.535Z,20.26
2023-05-09T17:14:54.732Z,20.11
2023-05-09T17:17:22.002Z,20.00
2023-05-09T17:19:49.152Z,19.94
2023-05-09T17:22:16.267Z,19.88
2023-05-09T17:24:43.779Z,19.75
2023-05-09T17:27:11.357Z,19.55
2023-05-09T17:29:38.498Z,19.36
2023-05-09T17:32:06.659Z,19.28
2023-05-09T17:34:34.888Z,19.20
2023-05-09T17:37:02.452Z,19.06
2023-05-09T17:39:29.918Z,18.94
2023-05-09T17:41:57.187Z,18.89
2023-05-09T17:44:24.672Z,18.83
2023-05-09T17:46:51.871Z,18.70
2023-05-09T17:49:19.044Z,18.60
2023-05-09T17:51:46.193Z,18.51
2023-05-09T17:54:13.362Z,18.40
2023-05-09T17:56:40.713Z,18.30
2023-05-09T17:59:07.968Z,18.18
2023-05-09T18:01:35.305Z,18.10
2023-05-09T18:04:02.828Z,17.98
2023-05-09T18:06:30.051Z,17.89
2023-05-09T18:08:57.416Z,17.77
2023-05-09T18:11:24.649Z,17.69
2023-05-09T18:13:51.943Z,17.60
2023-05-09T18:16:19.480Z,17.48
2023-05-09T18:18:46.723Z,17.41
2023-05-09T18:21:13.961Z,17.34
2023-05-09T18:23:43.041Z,17.28
2023-05-09T18:26:10.178Z,17.19
2023-05-09T18:28:40.730Z,17.09
2023-05-09T18:31:12.805Z,17.02
2023-05-09T18:33:40.294Z,16.92
2023-05-09T18:36:09.429Z,16.83
2023-05-09T18:38:38.617Z,16.77
2023-05-09T18:41:10.243Z,16.68
2023-05-09T18:43:38.875Z,16.63
2023-05-09T18:46:06.220Z,16.57
2023-05-09T18:48:33.499Z,16.48
2023-05-09T18:51:00.792Z,16.43
2023-05-09T18:53:28.923Z,16.38
2023-05-09T18:55:58.734Z,16.31
2023-05-09T18:58:25.881Z,16.24
2023-05-09T19:00:53.215Z,16.19
2023-05-09T19:03:20.936Z,16.13
2023-05-09T19:05:48.216Z,16.10
2023-05-09T19:08:15.570Z,16.05
2023-05-09T19:10:43.345Z,16.02
2023-05-09T19:13:10.671Z,15.96
2023-05-09T19:15:37.950Z,15.91
2023-05-09T19:18:05.262Z,15.85
2023-05-09T19:20:32.439Z,15.80
2023-05-09T19:22:59.631Z,15.75
2023-05-09T19:25:26.930Z,15.73
2023-05-09T19:27:54.063Z,15.69
2023-05-09T19:30:21.305Z,15.67
2023-05-09T19:32:49.535Z,15.63
2023-05-09T19:35:16.773Z,15.59
2023-05-09T19:37:43.956Z,15.56
2023-05-09T19:40:11.396Z,15.51
2023-05-09T19:42:39.766Z,15.46
2023-05-09T19:45:07.298Z,15.42
2023-05-09T19:47:34.465Z,15.37
2023-05-09T19:50:02.062Z,15.33
2023-05-09T19:52:29.889Z,15.30
2023-05-09T19:54:57.702Z,15.25
2023-05-09T19:57:24.859Z,15.20
2023-05-09T19:59:53.348Z,15.15
2023-05-09T20:02:20.760Z,15.12
2023-05-09T20:04:49.893Z,15.10
2023-05-09T20:07:17.753Z,15.06
2023-05-09T20:09:45.137Z,15.02
2023-05-09T20:12:13.263Z,14.99
2023-05-09T20:14:40.524Z,14.94
2023-05-09T20:17:07.720Z,14.87
2023-05-09T20:19:34.894Z,14.84
2023-05-09T20:22:02.496Z,14.79
2023-05-09T20:24:34.043Z,14.74
2023-05-09T20:27:02.921Z,14.72
2023-05-09T20:29:30.338Z,14.66
2023-05-09T20:31:57.543Z,14.60
2023-05-09T20:34:24.836Z,14.56
2023-05-09T20:36:53.711Z,14.52
2023-05-09T20:39:21.474Z,14.48
2023-05-09T20:41:50.114Z,14.44
2023-05-09T20:44:17.960Z,14.41
2023-05-09T20:46:45.584Z,14.39
2023-05-09T20:49:13.054Z,14.39
2023-05-09T20:51:40.327Z,14.36
2023-05-09T20:54:07.651Z,14.35
2023-05-09T20:56:35.557Z,14.31
2023-05-09T20:59:04.076Z,14.30
2023-05-09T21:01:35.362Z,14.28
2023-05-09T21:04:08.246Z,14.24
2023-05-09T21:06:36.293Z,14.22
2023-05-09T21:09:05.365Z,14.17
2023-05-09T21:11:32.611Z,14.13
2023-05-09T21:13:59.744Z,14.12
2023-05-09T21:16:28.138Z,14.10
2023-05-09T21:18:55.393Z,14.07
2023-05-09T21:21:22.539Z,14.03
2023-05-09T21:23:49.783Z,14.00
2023-05-09T21:26:16.872Z,13.98
2023-05-09T21:28:44.034Z,13.93
2023-05-09T21:31:11.571Z,13.90
2023-05-09T21:33:38.846Z,13.87
2023-05-09T21:36:06.412Z,13.85
2023-05-09T21:38:33.538Z,13.83
2023-05-09T21:41:00.791Z,13.81
2023-05-09T21:43:28.825Z,13.78
2023-05-09T21:45:56.522Z,13.74
2023-05-09T21:48:23.648Z,13.73
2023-05-09T21:50:50.792Z,13.73
2023-05-09T21:53:17.914Z,13.71
2023-05-09T21:55:45.012Z,13.68
2023-05-09T21:58:12.149Z,13.65
2023-05-09T22:00:39.271Z,13.62
2023-05-09T22:03:06.539Z,13.61
2023-05-09T22:05:33.749Z,13.59
2023-05-09T22:08:00.949Z,13.55
2023-05-09T22:10:28.030Z,13.52
2023-05-09T22:12:55.189Z,13.49
2023-05-09T22:15:47.891Z,13.46
2023-05-09T22:22:20.756Z,13.41
2023-05-09T22:24:47.967Z,13.40
2023-05-09T22:27:15.365Z,13.38
2023-05-09T22:29:43.723Z,13.36
2023-05-09T22:32:14.412Z,13.32
2023-05-09T22:34:41.698Z,13.29
2023-05-09T22:37:09.847Z,13.23
2023-05-09T22:39:37.034Z,13.18
2023-05-09T22:42:04.263Z,13.12
2023-05-09T22:44:32.514Z,13.08
2023-05-09T22:46:59.640Z,13.05
2023-05-09T22:49:26.821Z,13.03
2023-05-09T22:51:54.021Z,13.00
2023-05-09T22:54:22.366Z,13.00
2023-05-09T22:56:49.591Z,13.00
2023-05-09T22:59:16.805Z,12.96
2023-05-09T23:01:44.053Z,12.91
2023-05-09T23:04:11.351Z,12.88
2023-05-09T23:06:38.438Z,12.86
2023-05-09T23:09:05.572Z,12.86
2023-05-09T23:11:32.658Z,12.84
2023-05-09T23:13:59.868Z,12.80
2023-05-09T23:16:27.082Z,12.76
2023-05-09T23:18:54.188Z,12.70
2023-05-09T23:21:21.418Z,12.67
2023-05-09T23:23:48.558Z,12.61
2023-05-09T23:26:15.700Z,12.57
2023-05-09T23:28:42.902Z,12.53
2023-05-09T23:31:10.373Z,12.49
2023-05-09T23:33:37.621Z,12.46
2023-05-09T23:36:05.250Z,12.44
2023-05-09T23:38:32.357Z,12.39
2023-05-09T23:41:00.995Z,12.35
2023-05-09T23:43:28.809Z,12.34
2023-05-09T23:45:59.318Z,12.31
2023-05-09T23:48:26.794Z,12.27
2023-05-09T23:50:53.955Z,12.23
2023-05-09T23:53:21.098Z,12.21
2023-05-09T23:55:48.269Z,12.18
2023-05-09T23:58:15.493Z,12.20
